Time;durP1;ratioP1;P1;durP2;ratioP2;P2;SDS_P1;SDS_P2;PMS_P1;PMS_P2;Temp;Humidity;BMP_temperature;BMP_pressure;BME280_temperature;BME280_humidity;BME280_pressure;Samples;Min_cycle;Max_cycle;Signal;HPM_P1;HPM_P2
2022/02/23 00:00:25;;;;;;;3.70;1.75;;;20.30;37.80;;;;;;5114369;28;20134;-72
2022/02/23 00:02:51;;;;;;;3.72;1.65;;;20.40;37.90;;;;;;5114385;28;20399;-72
2022/02/23 00:05:17;;;;;;;2.97;1.73;;;20.40;37.90;;;;;;5113332;28;20138;-72
2022/02/23 00:07:42;;;;;;;2.88;1.58;;;20.30;37.80;;;;;;5095976;28;20149;-72
2022/02/23 00:10:09;;;;;;;3.05;1.27;;;20.40;37.90;;;;;;5112837;28;20058;-72
2022/02/23 00:12:35;;;;;;;5.20;1.67;;;20.40;37.90;;;;;;5114147;28;20051;-72
2022/02/23 00:15:00;;;;;;;3.50;1.70;;;20.30;37.80;;;;;;5096145;28;20101;-72
2022/02/23 00:17:27;;;;;;;4.25;1.67;;;20.30;37.80;;;;;;5114034;28;20138;-72
2022/02/23 00:19:53;;;;;;;4.65;1.73;;;20.30;38.10;;;;;;5113969;28;20050;-72
2022/02/23 00:22:19;;;;;;;4.07;1.98;;;20.40;37.80;;;;;;5114124;28;20055;-72
2022/02/23 00:24:45;;;;;;;4.53;1.65;;;20.40;37.90;;;;;;5113996;28;20399;-72
2022/02/23 00:27:10;;;;;;;3.53;1.63;;;20.40;37.90;;;;;;5114601;28;20048;-72
2022/02/23 00:29:36;;;;;;;2.80;1.55;;;20.30;37.80;;;;;;5095373;28;20441;-72
2022/02/23 00:32:02;;;;;;;3.63;1.80;;;20.30;37.90;;;;;;5095651;28;20444;-72
2022/02/23 00:34:29;;;;;;;3.30;1.70;;;20.30;37.80;;;;;;5113926;28;20055;-72
2022/02/23 00:36:55;;;;;;;3.75;1.73;;;20.30;37.80;;;;;;5095875;28;20062;-72
2022/02/23 00:39:22;;;;;;;5.68;1.88;;;20.30;37.80;;;;;;5113843;28;20055;-72
2022/02/23 00:41:47;;;;;;;3.63;1.40;;;20.30;37.80;;;;;;5113758;28;20074;-72
2022/02/23 00:44:14;;;;;;;5.30;2.10;;;20.30;37.90;;;;;;5095376;28;20504;-72
2022/02/23 00:46:40;;;;;;;3.85;1.98;;;20.30;37.80;;;;;;5113579;28;20491;-72
2022/02/23 00:49:06;;;;;;;4.80;1.92;;;20.30;37.80;;;;;;5113485;28;20068;-72
2022/02/23 00:51:32;;;;;;;3.90;1.70;;;20.30;37.90;;;;;;5113548;28;20052;-72
2022/02/23 00:53:57;;;;;;;4.18;1.70;;;20.30;37.90;;;;;;5113868;28;20130;-72
2022/02/23 00:56:24;;;;;;;2.40;1.60;;;20.30;37.90;;;;;;5113424;28;20047;-72
2022/02/23 00:58:51;;;;;;;4.30;2.15;;;20.30;37.80;;;;;;5095045;28;20051;-72
2022/02/23 01:01:16;;;;;;;4.90;1.50;;;20.30;37.80;;;;;;5113341;28;20044;-72
2022/02/23 01:03:42;;;;;;;3.45;1.80;;;20.30;37.80;;;;;;5113102;28;20054;-72
2022/02/23 01:06:08;;;;;;;3.47;1.83;;;20.30;37.90;;;;;;5110802;28;20085;-72
2022/02/23 01:08:33;;;;;;;4.25;1.42;;;20.40;37.90;;;;;;5112403;28;20048;-72
2022/02/23 01:10:59;;;;;;;3.65;1.92;;;20.40;37.90;;;;;;5113120;28;20054;-72
2022/02/23 01:13:25;;;;;;;4.75;1.70;;;20.30;38.40;;;;;;5113425;28;20051;-72
2022/02/23 01:15:51;;;;;;;3.35;1.50;;;20.40;37.90;;;;;;5113150;28;20143;-72
2022/02/23 01:18:16;;;;;;;4.18;1.88;;;20.30;37.90;;;;;;5113187;28;20134;-72
2022/02/23 01:20:42;;;;;;;4.90;1.95;;;20.30;37.80;;;;;;5113095;28;20053;-72
2022/02/23 01:23:08;;;;;;;4.10;1.77;;;20.30;37.80;;;;;;5113180;28;20142;-72
2022/02/23 01:25:34;;;;;;;3.40;1.60;;;20.30;37.90;;;;;;5113099;28;20083;-72
2022/02/23 01:28:02;;;;;;;3.60;1.67;;;20.30;37.80;;;;;;5094718;28;20089;-72
2022/02/23 01:30:29;;;;;;;4.57;1.95;;;20.30;37.80;;;;;;5112750;28;20055;-72
2022/02/23 01:32:55;;;;;;;4.88;2.10;;;20.30;37.80;;;;;;5092895;28;20052;-72
2022/02/23 01:35:21;;;;;;;3.13;1.55;;;20.30;37.80;;;;;;5113321;28;20054;-72
2022/02/23 01:37:47;;;;;;;4.85;1.88;;;20.30;37.90;;;;;;5112874;28;20052;-72
2022/02/23 01:40:13;;;;;;;3.80;1.70;;;20.30;37.90;;;;;;5112839;28;20047;-72
2022/02/23 01:42:39;;;;;;;5.10;1.83;;;20.30;37.90;;;;;;5113158;28;20051;-72
2022/02/23 01:45:05;;;;;;;5.25;1.98;;;20.30;37.90;;;;;;5112825;28;20507;-72
2022/02/23 01:47:31;;;;;;;3.90;1.90;;;20.30;37.90;;;;;;5093279;28;20044;-72
2022/02/23 01:49:57;;;;;;;5.20;2.00;;;20.30;37.90;;;;;;5112812;28;20051;-72
2022/02/23 01:52:25;;;;;;;4.22;1.60;;;20.30;37.90;;;;;;5113343;28;20058;-72
2022/02/23 01:54:52;;;;;;;3.65;1.88;;;20.30;37.90;;;;;;5112981;28;20062;-72
2022/02/23 01:57:18;;;;;;;3.33;1.77;;;20.30;37.90;;;;;;5111586;28;20054;-72
2022/02/23 01:59:43;;;;;;;4.60;1.90;;;20.30;37.90;;;;;;5092526;28;20474;-72
2022/02/23 02:02:09;;;;;;;2.97;1.70;;;20.30;37.90;;;;;;5094300;28;20210;-72
2022/02/23 02:04:35;;;;;;;3.50;2.03;;;20.30;37.90;;;;;;5094247;28;20101;-72
2022/02/23 02:07:00;;;;;;;4.95;1.73;;;20.30;37.90;;;;;;5112607;28;20052;-72
2022/02/23 02:09:26;;;;;;;6.70;1.83;;;20.30;37.90;;;;;;5112497;28;20181;-72
2022/02/23 02:11:52;;;;;;;4.53;2.20;;;20.30;37.90;;;;;;5094160;28;20474;-72
2022/02/23 02:14:17;;;;;;;3.30;1.67;;;20.30;37.90;;;;;;5112792;28;20054;-72
2022/02/23 02:16:43;;;;;;;4.75;1.98;;;20.30;37.90;;;;;;5112494;28;20055;-72
2022/02/23 02:19:08;;;;;;;5.60;1.75;;;20.30;37.80;;;;;;5112305;28;20059;-72
2022/02/23 02:21:50;;;;;;;3.90;2.10;;;20.30;37.90;;;;;;5113612;28;20056;-72
2022/02/23 02:24:16;;;;;;;5.20;2.05;;;20.30;37.90;;;;;;5115954;28;20054;-72
2022/02/23 02:26:41;;;;;;;5.55;1.67;;;20.30;37.80;;;;;;5114604;28;20432;-72
2022/02/23 02:29:07;;;;;;;3.70;1.90;;;20.30;37.90;;;;;;5115576;28;20139;-72
2022/02/23 02:31:33;;;;;;;4.35;1.90;;;20.30;37.80;;;;;;5116169;28;20075;-72
2022/02/23 02:33:59;;;;;;;6.18;1.85;;;20.30;37.80;;;;;;5097901;28;20086;-72
2022/02/23 02:36:24;;;;;;;5.90;2.17;;;20.30;37.90;;;;;;5115782;28;20079;-72
2022/02/23 02:38:52;;;;;;;3.92;1.90;;;20.30;37.90;;;;;;5113110;28;20492;-73
2022/02/23 02:41:17;;;;;;;6.35;1.83;;;20.30;37.90;;;;;;5115736;28;20056;-72
2022/02/23 02:43:43;;;;;;;4.55;2.28;;;20.30;37.90;;;;;;5115388;28;20087;-72
2022/02/23 02:46:08;;;;;;;3.55;1.70;;;20.30;37.90;;;;;;5115233;28;20495;-72
2022/02/23 02:48:34;;;;;;;4.30;1.70;;;20.30;37.90;;;;;;5115043;28;20055;-72
2022/02/23 02:50:59;;;;;;;5.35;1.88;;;20.30;37.90;;;;;;5115304;28;20052;-72
2022/02/23 02:53:25;;;;;;;4.93;1.95;;;20.30;37.90;;;;;;5115153;28;20085;-72
2022/02/23 02:55:50;;;;;;;4.70;1.95;;;20.30;37.90;;;;;;5097390;28;20047;-72
2022/02/23 02:58:16;;;;;;;5.05;2.30;;;20.30;37.90;;;;;;5097134;28;20419;-72
2022/02/23 03:00:42;;;;;;;3.65;1.90;;;20.30;37.90;;;;;;5115353;28;20139;-72
2022/02/23 03:03:07;;;;;;;4.43;1.88;;;20.30;37.90;;;;;;5115276;28;20079;-72
2022/02/23 03:05:33;;;;;;;4.40;2.13;;;20.30;37.90;;;;;;5115305;28;20125;-72
2022/02/23 03:07:59;;;;;;;4.63;1.60;;;20.30;37.90;;;;;;5115177;28;20056;-72
2022/02/23 03:10:25;;;;;;;5.70;1.77;;;20.30;37.80;;;;;;5115163;28;20048;-72
2022/02/23 03:12:50;;;;;;;3.85;1.92;;;20.30;37.80;;;;;;5096174;28;20091;-72
2022/02/23 03:15:16;;;;;;;3.80;1.92;;;20.30;37.80;;;;;;5115121;28;20052;-72
2022/02/23 03:17:42;;;;;;;4.82;2.10;;;20.30;37.90;;;;;;5114511;28;20196;-72
2022/02/23 03:20:08;;;;;;;6.18;1.85;;;20.30;37.80;;;;;;5114826;28;20147;-72
2022/02/23 03:22:37;;;;;;;4.38;2.00;;;20.30;37.80;;;;;;5114997;28;20051;-72
2022/02/23 03:25:04;;;;;;;3.78;1.70;;;20.30;37.80;;;;;;5096947;28;20051;-72
2022/02/23 03:27:29;;;;;;;3.95;1.73;;;20.40;37.80;;;;;;5096482;28;20134;-72
2022/02/23 03:29:55;;;;;;;6.47;2.50;;;20.40;37.80;;;;;;5096441;28;20135;-72
2022/02/23 03:32:20;;;;;;;5.18;1.83;;;20.40;37.70;;;;;;5096078;28;20056;-72
2022/02/23 03:34:46;;;;;;;4.40;1.73;;;20.40;37.70;;;;;;5114818;28;20054;-72
2022/02/23 03:37:12;;;;;;;4.20;1.83;;;20.40;37.70;;;;;;5114779;28;20407;-72
2022/02/23 03:39:38;;;;;;;4.07;1.98;;;20.40;37.70;;;;;;5114677;28;20483;-72
2022/02/23 03:42:04;;;;;;;4.28;2.05;;;20.40;37.70;;;;;;5114763;28;20065;-72
2022/02/23 03:44:29;;;;;;;4.35;1.70;;;20.40;37.60;;;;;;5114726;28;20052;-72
2022/02/23 03:46:55;;;;;;;3.58;1.70;;;20.50;37.60;;;;;;5114619;28;20052;-72
2022/02/23 03:49:20;;;;;;;3.72;1.55;;;20.50;37.60;;;;;;5114712;28;20040;-72
2022/02/23 03:51:46;;;;;;;6.38;2.45;;;20.50;37.60;;;;;;5114437;28;20548;-72
2022/02/23 03:54:11;;;;;;;4.38;1.88;;;20.50;37.60;;;;;;5114810;28;20051;-72
2022/02/23 03:56:40;;;;;;;5.25;2.00;;;20.50;37.60;;;;;;5114748;28;20051;-72
2022/02/23 03:59:09;;;;;;;6.57;2.28;;;20.50;37.50;;;;;;5096165;28;20044;-72
2022/02/23 04:01:37;;;;;;;5.95;2.22;;;20.60;37.50;;;;;;5094697;28;20052;-72
2022/02/23 04:04:03;;;;;;;4.97;2.38;;;20.50;37.40;;;;;;5114370;28;20047;-72
2022/02/23 04:06:30;;;;;;;4.45;1.90;;;20.60;37.40;;;;;;5096108;28;20051;-72
2022/02/23 04:08:57;;;;;;;3.88;1.90;;;20.60;37.40;;;;;;5114228;28;20052;-72
2022/02/23 04:11:23;;;;;;;6.68;2.17;;;20.60;37.40;;;;;;5114200;28;20048;-72
2022/02/23 04:13:50;;;;;;;4.07;1.90;;;20.60;37.40;;;;;;5112928;28;20097;-72
2022/02/23 04:16:15;;;;;;;3.85;1.95;;;20.60;37.30;;;;;;5114205;28;20089;-72
2022/02/23 04:18:43;;;;;;;5.85;2.03;;;20.60;37.30;;;;;;5094630;28;20132;-72
2022/02/23 04:21:08;;;;;;;4.07;1.98;;;20.60;37.30;;;;;;5113958;28;20154;-73
2022/02/23 04:23:34;;;;;;;3.88;2.28;;;20.60;37.20;;;;;;5113961;28;20141;-72
2022/02/23 04:25:59;;;;;;;5.30;1.95;;;20.60;37.20;;;;;;5114048;28;20134;-72
2022/02/23 04:28:28;;;;;;;5.78;2.03;;;20.60;37.30;;;;;;5113704;28;20055;-72
2022/02/23 04:30:55;;;;;;;5.95;2.50;;;20.60;37.20;;;;;;5110638;28;20056;-72
2022/02/23 04:33:20;;;;;;;6.80;2.05;;;20.60;37.20;;;;;;5114224;28;20142;-72
2022/02/23 04:35:47;;;;;;;5.85;2.20;;;20.60;37.20;;;;;;5113733;28;20138;-72
2022/02/23 04:38:13;;;;;;;7.80;2.35;;;20.70;37.80;;;;;;5113805;28;20078;-72
2022/02/23 04:40:41;;;;;;;4.85;2.42;;;20.70;37.20;;;;;;5113730;28;20047;-72
2022/02/23 04:43:07;;;;;;;7.05;2.53;;;20.70;37.20;;;;;;5112743;28;20096;-72
2022/02/23 04:45:32;;;;;;;6.80;2.78;;;20.70;37.20;;;;;;5113621;28;20051;-72
2022/02/23 04:47:58;;;;;;;5.65;2.17;;;20.70;37.30;;;;;;5095556;28;20059;-72
2022/02/23 04:50:23;;;;;;;6.40;2.17;;;20.60;37.20;;;;;;5113726;28;20483;-72
2022/02/23 04:52:49;;;;;;;5.50;1.85;;;20.60;37.20;;;;;;5113613;28;20415;-72
2022/02/23 04:55:15;;;;;;;5.22;2.10;;;20.60;37.20;;;;;;5113488;28;20079;-72
2022/02/23 04:57:40;;;;;;;4.18;2.00;;;20.60;37.20;;;;;;5113551;28;20043;-72
2022/02/23 05:00:06;;;;;;;4.72;1.95;;;20.60;37.20;;;;;;5113401;28;20078;-72
2022/02/23 05:02:32;;;;;;;5.82;1.80;;;20.70;37.30;;;;;;5110963;28;20385;-72
2022/02/23 05:04:57;;;;;;;4.53;1.65;;;20.60;37.20;;;;;;5113386;28;20058;-72
2022/02/23 05:07:24;;;;;;;5.68;2.00;;;20.60;37.30;;;;;;5113310;28;20487;-72
2022/02/23 05:09:50;;;;;;;5.07;2.20;;;20.60;37.30;;;;;;5112231;28;20048;-73
2022/02/23 05:12:16;;;;;;;4.05;1.98;;;20.60;37.30;;;;;;5113323;28;20096;-72
2022/02/23 05:14:42;;;;;;;4.53;2.17;;;20.60;37.30;;;;;;5113541;28;20051;-72
2022/02/23 05:17:08;;;;;;;6.95;2.50;;;20.60;37.30;;;;;;5113272;28;20055;-72
2022/02/23 05:19:34;;;;;;;4.95;2.17;;;20.60;37.30;;;;;;5110540;28;20050;-72
2022/02/23 05:22:04;;;;;;;3.70;1.75;;;20.60;37.30;;;;;;5095254;28;20097;-72
2022/02/23 05:24:30;;;;;;;4.05;1.77;;;20.60;37.20;;;;;;5094822;28;20138;-72
2022/02/23 05:26:56;;;;;;;5.22;1.75;;;20.60;37.30;;;;;;5111801;28;20527;-72
2022/02/23 05:29:22;;;;;;;5.45;2.28;;;20.60;37.30;;;;;;5112718;28;20136;-72
2022/02/23 05:31:48;;;;;;;4.93;1.73;;;20.60;37.30;;;;;;5113151;28;20062;-72
2022/02/23 05:34:14;;;;;;;4.93;2.17;;;20.60;37.30;;;;;;5113018;28;20052;-72
2022/02/23 05:36:40;;;;;;;5.63;1.98;;;20.60;37.30;;;;;;5112931;28;20051;-72
2022/02/23 05:39:05;;;;;;;4.97;2.10;;;20.60;37.30;;;;;;5112948;28;20056;-72
2022/02/23 05:41:31;;;;;;;5.78;2.13;;;20.60;37.30;;;;;;5111707;28;20438;-72
2022/02/23 05:43:56;;;;;;;6.45;2.20;;;20.60;37.30;;;;;;5112871;28;20051;-72
2022/02/23 05:46:22;;;;;;;3.13;1.73;;;20.60;37.30;;;;;;5094486;28;20078;-72
2022/02/23 05:48:47;;;;;;;3.88;1.95;;;20.60;37.30;;;;;;5095145;28;20494;-72
2022/02/23 05:51:27;;;;;;;4.57;2.08;;;20.60;37.30;;;;;;5093877;28;20104;-72
2022/02/23 05:53:53;;;;;;;6.07;2.22;;;20.60;37.30;;;;;;5112649;28;20130;-72
2022/02/23 05:56:18;;;;;;;6.10;2.22;;;20.60;37.30;;;;;;5116465;28;20541;-72
2022/02/23 05:58:44;;;;;;;5.15;2.50;;;20.60;37.40;;;;;;5116204;28;20047;-72
2022/02/23 06:01:13;;;;;;;4.07;2.00;;;20.60;37.30;;;;;;5116416;28;20111;-72
2022/02/23 06:03:38;;;;;;;6.05;2.15;;;20.60;37.40;;;;;;5116052;28;20047;-72
2022/02/23 06:06:04;;;;;;;7.15;2.45;;;20.60;37.40;;;;;;5116241;28;20502;-72
2022/02/23 06:08:30;;;;;;;6.38;2.25;;;20.60;37.30;;;;;;5115822;28;20514;-72
2022/02/23 06:10:55;;;;;;;4.00;1.85;;;20.60;37.40;;;;;;5098024;28;20052;-72
2022/02/23 06:13:21;;;;;;;4.53;2.20;;;20.60;37.40;;;;;;5097650;28;20518;-72
2022/02/23 06:15:47;;;;;;;6.47;2.35;;;20.60;37.30;;;;;;5116420;28;20059;-72
2022/02/23 06:18:13;;;;;;;4.90;1.90;;;20.60;37.40;;;;;;5116371;28;20391;-72
2022/02/23 06:20:39;;;;;;;5.55;2.25;;;20.60;37.40;;;;;;5115899;28;20055;-72
2022/02/23 06:23:04;;;;;;;4.88;1.70;;;20.60;37.40;;;;;;5097573;28;20052;-72
2022/02/23 06:25:30;;;;;;;4.43;2.13;;;20.60;37.40;;;;;;5115889;28;20101;-72
2022/02/23 06:27:56;;;;;;;5.05;2.10;;;20.60;37.40;;;;;;5115840;28;20052;-72
2022/02/23 06:30:21;;;;;;;4.65;2.08;;;20.60;37.40;;;;;;5097516;28;20083;-72
2022/02/23 06:32:47;;;;;;;4.43;1.80;;;20.60;37.40;;;;;;5114402;28;20056;-72
2022/02/23 06:35:13;;;;;;;4.53;2.20;;;20.60;37.40;;;;;;5115779;28;20062;-72
2022/02/23 06:37:38;;;;;;;4.50;2.10;;;20.60;37.40;;;;;;5116299;28;20089;-72
2022/02/23 06:40:05;;;;;;;6.82;2.10;;;20.60;37.40;;;;;;5115529;28;20368;-72
2022/02/23 06:42:31;;;;;;;3.95;2.08;;;20.60;37.40;;;;;;5115407;28;20048;-72
2022/02/23 06:44:57;;;;;;;4.45;1.98;;;20.60;37.40;;;;;;5097265;28;20055;-72
2022/02/23 06:47:23;;;;;;;5.13;2.17;;;20.60;37.40;;;;;;5097126;28;20127;-72
2022/02/23 06:49:49;;;;;;;5.70;2.47;;;20.60;37.30;;;;;;5115289;28;20040;-72
2022/02/23 06:52:18;;;;;;;5.55;2.30;;;20.60;37.40;;;;;;5115623;28;20062;-72
2022/02/23 06:54:44;;;;;;;9.15;2.33;;;20.60;37.30;;;;;;5115529;28;20051;-72
2022/02/23 06:57:09;;;;;;;4.90;2.15;;;20.70;37.40;;;;;;5115382;28;20043;-72
2022/02/23 06:59:38;;;;;;;5.13;2.47;;;20.70;37.40;;;;;;5115297;28;20060;-72
2022/02/23 07:02:03;;;;;;;4.82;2.05;;;20.70;37.30;;;;;;5115255;28;20043;-72
2022/02/23 07:04:29;;;;;;;5.68;2.25;;;20.70;37.40;;;;;;5115395;28;20051;-72
2022/02/23 07:06:54;;;;;;;6.22;2.05;;;20.70;37.30;;;;;;5112637;28;20055;-72
2022/02/23 07:09:20;;;;;;;3.85;1.95;;;20.70;37.40;;;;;;5114302;28;20047;-72
2022/02/23 07:11:45;;;;;;;7.85;2.55;;;20.70;37.30;;;;;;5115213;28;20051;-72
2022/02/23 07:14:11;;;;;;;6.30;1.95;;;20.70;37.30;;;;;;5115368;28;20082;-72
2022/02/23 07:16:37;;;;;;;4.32;1.95;;;20.70;37.30;;;;;;5114869;28;20048;-72
2022/02/23 07:19:04;;;;;;;6.18;2.50;;;20.70;37.30;;;;;;5115252;28;20060;-72
2022/02/23 07:21:31;;;;;;;7.40;2.35;;;20.70;37.30;;;;;;5114783;28;20517;-72
2022/02/23 07:23:57;;;;;;;4.72;2.22;;;20.70;37.30;;;;;;5114926;28;20058;-72
2022/02/23 07:26:22;;;;;;;8.27;2.67;;;20.70;37.30;;;;;;5096541;28;20051;-72
2022/02/23 07:28:49;;;;;;;7.88;2.90;;;20.70;37.30;;;;;;5096537;28;20047;-73
2022/02/23 07:31:22;;;;;;;4.15;2.03;;;20.70;37.30;;;;;;5115006;28;20052;-72
2022/02/23 07:33:47;;;;;;;4.97;2.05;;;20.70;37.30;;;;;;5080468;28;20503;-72
2022/02/23 07:36:13;;;;;;;6.78;2.35;;;20.70;37.80;;;;;;5114548;28;20055;-72
2022/02/23 07:38:40;;;;;;;7.10;2.55;;;20.80;37.30;;;;;;5114527;28;20384;-72
2022/02/23 07:41:08;;;;;;;5.68;2.25;;;20.70;37.30;;;;;;5077594;28;20048;-72
2022/02/23 07:43:34;;;;;;;5.03;2.08;;;20.80;37.30;;;;;;5096160;28;20059;-72
2022/02/23 07:46:01;;;;;;;6.18;2.67;;;20.80;37.30;;;;;;5114574;28;20070;-72
2022/02/23 07:48:26;;;;;;;3.75;2.15;;;20.80;37.30;;;;;;5114157;28;20043;-72
2022/02/23 07:50:52;;;;;;;4.43;1.83;;;20.80;37.20;;;;;;5114556;28;20399;-72
2022/02/23 07:53:17;;;;;;;3.53;1.75;;;20.80;37.20;;;;;;5114645;28;20406;-72
2022/02/23 07:55:43;;;;;;;8.38;2.53;;;20.80;37.20;;;;;;5114668;28;20138;-72
2022/02/23 07:58:09;;;;;;;7.57;2.50;;;20.80;37.10;;;;;;5114495;28;20051;-72
2022/02/23 08:00:35;;;;;;;7.15;2.30;;;20.90;37.10;;;;;;5114222;28;20071;-72
2022/02/23 08:03:01;;;;;;;5.50;2.28;;;20.90;37.10;;;;;;5114228;28;20457;-73
2022/02/23 08:05:28;;;;;;;6.78;2.10;;;20.90;37.10;;;;;;5112837;28;20086;-72
2022/02/23 08:07:55;;;;;;;6.13;2.40;;;20.90;37.10;;;;;;5114271;28;20070;-72
2022/02/23 08:10:22;;;;;;;6.20;2.17;;;20.90;37.10;;;;;;5114090;28;20403;-72
2022/02/23 08:12:48;;;;;;;6.47;2.35;;;20.90;37.10;;;;;;5114469;28;20079;-72
2022/02/23 08:20:42;;;;;;;7.05;2.25;;;20.90;37.10;;;;;;5110390;28;20108;-72
2022/02/23 08:23:11;;;;;;;7.22;2.78;;;20.90;37.10;;;;;;5113681;28;20479;-72
2022/02/23 08:25:37;;;;;;;7.57;2.47;;;20.90;37.00;;;;;;5113780;28;20059;-72
2022/02/23 08:28:02;;;;;;;8.43;2.47;;;20.90;37.00;;;;;;5113817;28;20130;-72
2022/02/23 08:30:28;;;;;;;7.30;3.00;;;20.90;36.90;;;;;;5113815;28;20048;-72
2022/02/23 08:32:55;;;;;;;7.10;2.70;;;21.00;36.90;;;;;;5113844;28;20096;-72
2022/02/23 08:35:21;;;;;;;8.27;2.10;;;21.00;36.90;;;;;;5113969;28;20048;-72
2022/02/23 08:37:46;;;;;;;8.32;2.88;;;21.00;36.90;;;;;;5114105;28;20065;-72
2022/02/23 08:40:12;;;;;;;8.68;2.58;;;21.00;36.90;;;;;;5113702;28;20411;-72
2022/02/23 08:42:37;;;;;;;8.32;2.42;;;21.10;36.80;;;;;;5113738;28;20418;-73
2022/02/23 08:45:03;;;;;;;6.28;2.60;;;21.10;36.80;;;;;;5113564;28;20052;-72
2022/02/23 08:47:29;;;;;;;6.93;2.40;;;21.10;36.80;;;;;;5113956;28;20077;-72
2022/02/23 08:49:55;;;;;;;6.53;2.40;;;21.10;36.80;;;;;;5113306;28;20043;-72
2022/02/23 08:52:21;;;;;;;7.70;2.75;;;21.10;36.80;;;;;;5112446;28;20052;-72
2022/02/23 08:54:46;;;;;;;9.15;2.95;;;21.10;36.80;;;;;;5112191;28;20051;-72
2022/02/23 08:57:12;;;;;;;7.95;2.13;;;21.00;36.80;;;;;;5113660;28;20169;-71
2022/02/23 08:59:37;;;;;;;5.80;2.22;;;21.10;36.90;;;;;;5113358;28;20072;-72
2022/02/23 09:02:04;;;;;;;7.45;2.75;;;21.10;36.80;;;;;;5113640;28;20058;-72
2022/02/23 09:04:29;;;;;;;7.72;2.63;;;21.10;36.80;;;;;;5113555;28;20081;-72
2022/02/23 09:06:55;;;;;;;6.85;2.40;;;21.10;36.80;;;;;;5113337;28;20091;-72
2022/02/23 09:09:21;;;;;;;8.55;2.72;;;21.10;36.80;;;;;;5111818;28;20079;-72
2022/02/23 09:11:47;;;;;;;8.82;2.95;;;21.10;36.80;;;;;;5113063;28;20052;-72
2022/02/23 09:14:14;;;;;;;9.13;2.60;;;21.10;36.90;;;;;;5094792;28;20150;-72
2022/02/23 09:16:40;;;;;;;7.07;2.60;;;21.10;36.90;;;;;;5113123;28;20048;-72
2022/02/23 09:19:07;;;;;;;8.18;3.08;;;21.10;36.80;;;;;;5112811;28;20055;-72
2022/02/23 09:21:33;;;;;;;11.02;2.80;;;21.00;36.90;;;;;;5113109;28;20079;-72
2022/02/23 09:23:59;;;;;;;7.22;2.85;;;21.00;36.90;;;;;;5113024;28;20043;-72
2022/02/23 09:26:26;;;;;;;10.38;2.70;;;21.00;36.80;;;;;;5113271;28;20055;-72
2022/02/23 09:28:53;;;;;;;8.13;3.17;;;21.00;36.80;;;;;;5112322;28;20492;-72
2022/02/23 09:31:18;;;;;;;7.60;2.80;;;21.00;36.80;;;;;;5113377;28;20462;-72
2022/02/23 09:33:44;;;;;;;7.47;2.70;;;21.10;36.90;;;;;;5111039;28;20078;-72
2022/02/23 09:36:10;;;;;;;8.98;3.05;;;21.10;36.90;;;;;;5112707;28;20503;-72
2022/02/23 09:38:36;;;;;;;10.50;2.63;;;21.10;36.90;;;;;;5112644;28;20051;-72
2022/02/23 09:41:04;;;;;;;10.00;2.83;;;21.10;36.90;;;;;;5094853;28;20048;-72
2022/02/23 09:43:31;;;;;;;9.65;2.97;;;21.10;36.80;;;;;;5112597;28;20160;-72
2022/02/23 09:45:56;;;;;;;8.45;2.65;;;21.10;36.80;;;;;;5112774;28;20383;-72
2022/02/23 09:48:25;;;;;;;6.85;2.28;;;21.10;36.80;;;;;;5112755;28;20063;-72
2022/02/23 09:50:51;;;;;;;8.77;2.80;;;21.10;36.80;;;;;;5112642;28;20050;-72
2022/02/23 09:53:18;;;;;;;10.10;2.67;;;21.10;36.80;;;;;;5112560;28;20082;-72
2022/02/23 09:55:44;;;;;;;12.13;2.50;;;21.10;36.80;;;;;;5112684;28;20085;-72
2022/02/23 09:58:10;;;;;;;11.73;2.75;;;21.10;36.80;;;;;;5094088;28;20084;-72
2022/02/23 10:00:36;;;;;;;10.32;3.10;;;21.20;36.80;;;;;;5094094;28;20502;-72
2022/02/23 10:03:05;;;;;;;12.20;3.22;;;21.10;36.80;;;;;;5077179;28;20551;-72
2022/02/23 10:05:41;;;;;;;16.52;3.40;;;21.20;36.90;;;;;;5112489;28;20392;-72
2022/02/23 10:08:09;;;;;;;11.82;2.63;;;21.10;36.80;;;;;;5112408;28;20051;-72
2022/02/23 10:10:40;;;;;;;8.13;2.50;;;21.10;36.80;;;;;;5094251;28;20907;-72
2022/02/23 10:13:07;;;;;;;10.52;2.70;;;21.10;36.80;;;;;;5112772;28;20074;-72
2022/02/23 10:15:42;;;;;;;7.63;2.72;;;21.20;36.90;;;;;;5112203;28;20514;-72
2022/02/23 10:18:15;;;;;;;10.43;2.80;;;21.10;36.80;;;;;;5112241;28;20051;-72
2022/02/23 10:20:42;;;;;;;8.60;2.95;;;21.10;36.80;;;;;;5112319;28;20437;-72
2022/02/23 10:23:20;;;;;;;9.52;2.75;;;21.10;36.80;;;;;;5093797;28;20150;-72
2022/02/23 10:26:05;;;;;;;9.25;2.40;;;21.10;36.80;;;;;;5094238;28;20391;-72
2022/02/23 10:28:35;;;;;;;12.23;2.95;;;21.10;36.80;;;;;;5093916;28;20054;-72
2022/02/23 10:31:09;;;;;;;12.05;3.30;;;21.20;36.80;;;;;;5093716;28;20048;-72
2022/02/23 10:33:41;;;;;;;5.70;2.50;;;21.10;36.70;;;;;;5112132;28;20056;-72
2022/02/23 10:36:09;;;;;;;7.53;2.45;;;21.20;36.70;;;;;;5094243;28;20047;-72
2022/02/23 10:38:41;;;;;;;7.45;2.90;;;21.20;36.70;;;;;;5112230;28;20112;-72
2022/02/23 10:41:09;;;;;;;11.13;2.85;;;21.20;36.70;;;;;;5112308;28;20108;-72
2022/02/23 10:43:41;;;;;;;12.05;2.97;;;21.20;36.80;;;;;;5115352;28;20047;-72
2022/02/23 10:46:10;;;;;;;10.13;3.05;;;21.20;36.70;;;;;;5115567;28;20063;-72
2022/02/23 10:48:38;;;;;;;10.70;2.72;;;21.10;36.80;;;;;;5115639;28;20407;-72
2022/02/23 10:51:05;;;;;;;12.15;2.88;;;21.10;36.80;;;;;;5078389;28;20044;-72
2022/02/23 10:53:33;;;;;;;11.52;2.95;;;21.10;36.90;;;;;;5115559;28;20055;-72
2022/02/23 10:55:59;;;;;;;6.28;2.47;;;21.10;36.90;;;;;;5115244;28;20058;-72
2022/02/23 10:58:29;;;;;;;8.93;2.58;;;21.10;36.90;;;;;;5095841;28;20048;-72
2022/02/23 11:00:58;;;;;;;12.63;3.08;;;21.10;36.90;;;;;;5115213;28;20063;-72
2022/02/23 11:03:23;;;;;;;11.82;3.03;;;21.10;36.90;;;;;;5115082;28;20108;-72
2022/02/23 11:05:52;;;;;;;10.30;2.08;;;21.10;36.90;;;;;;5113785;28;20437;-73
2022/02/23 11:08:18;;;;;;;10.88;2.80;;;21.10;36.90;;;;;;5096869;28;20400;-72
2022/02/23 11:10:46;;;;;;;7.50;2.28;;;21.10;36.90;;;;;;5115001;28;20044;-73
2022/02/23 11:13:15;;;;;;;4.85;2.10;;;21.10;36.90;;;;;;5115324;28;20125;-72
2022/02/23 11:15:45;;;;;;;9.05;2.58;;;21.10;36.80;;;;;;5115052;28;20058;-72
2022/02/23 11:18:13;;;;;;;10.23;2.90;;;21.20;36.90;;;;;;5096629;28;20062;-72
2022/02/23 11:20:41;;;;;;;8.10;2.67;;;21.20;36.90;;;;;;5115050;28;20514;-72
2022/02/23 11:23:07;;;;;;;7.60;2.40;;;21.20;36.80;;;;;;5114843;28;20479;-73
2022/02/23 11:25:37;;;;;;;10.00;2.50;;;21.20;36.80;;;;;;5114939;28;20423;-73
2022/02/23 11:28:09;;;;;;;4.57;1.63;;;21.20;36.70;;;;;;5115095;28;20099;-73
2022/02/23 11:30:35;;;;;;;7.18;2.78;;;21.20;36.70;;;;;;5115069;28;20562;-73
2022/02/23 11:33:03;;;;;;;8.82;2.40;;;21.20;36.70;;;;;;5096639;28;20055;-72
2022/02/23 11:35:48;;;;;;;7.03;2.53;;;21.30;36.80;;;;;;5114932;28;20459;-72
2022/02/23 11:38:18;;;;;;;9.55;2.47;;;21.20;36.70;;;;;;5114506;28;20055;-73
2022/02/23 11:40:54;;;;;;;6.30;2.40;;;21.30;36.80;;;;;;5096562;28;20071;-72
2022/02/23 11:43:38;;;;;;;6.93;2.22;;;21.30;36.80;;;;;;5114713;28;20064;-73
2022/02/23 11:46:08;;;;;;;9.80;2.85;;;21.30;36.70;;;;;;5079452;28;20092;-73
2022/02/23 11:48:53;;;;;;;4.60;2.15;;;21.20;36.60;;;;;;5114004;28;20058;-72
2022/02/23 11:51:26;;;;;;;6.07;2.30;;;21.30;36.70;;;;;;5114682;28;20131;-73
2022/02/23 11:53:53;;;;;;;9.30;2.70;;;21.30;36.70;;;;;;5114127;28;20100;-72
2022/02/23 11:56:20;;;;;;;8.57;2.78;;;21.30;36.70;;;;;;5114425;28;20051;-73
2022/02/23 11:58:50;;;;;;;6.38;2.25;;;21.30;36.70;;;;;;5114081;28;20495;-72
2022/02/23 12:01:17;;;;;;;15.95;2.30;;;21.30;36.70;;;;;;5096191;28;20048;-72
2022/02/23 12:04:05;;;;;;;7.32;2.60;;;21.30;36.70;;;;;;5095897;28;20546;-73
2022/02/23 12:07:10;;;;;;;6.97;2.05;;;21.30;36.70;;;;;;5114216;28;20046;-73
2022/02/23 12:09:56;;;;;;;6.07;2.47;;;21.20;36.70;;;;;;5112585;28;20403;-73
2022/02/23 12:12:33;;;;;;;6.03;2.35;;;21.30;36.80;;;;;;5114191;28;20047;-72
2022/02/23 12:15:06;;;;;;;8.60;2.38;;;21.30;36.70;;;;;;5113996;28;20051;-73
2022/02/23 12:17:47;;;;;;;5.60;1.98;;;21.30;36.70;;;;;;5113832;28;20051;-73
2022/02/23 12:20:36;;;;;;;6.27;2.20;;;21.20;36.60;;;;;;5114096;28;20499;-73
2022/02/23 12:23:02;;;;;;;5.78;1.88;;;21.30;36.70;;;;;;5098577;28;20461;-73
2022/02/23 12:25:49;;;;;;;8.70;2.47;;;21.30;36.70;;;;;;5113928;28;20052;-73
2022/02/23 12:28:20;;;;;;;5.75;1.67;;;21.30;36.70;;;;;;5113653;28;20181;-72
2022/02/23 12:30:56;;;;;;;6.17;2.47;;;21.30;36.70;;;;;;5113824;28;20448;-72
2022/02/23 12:33:23;;;;;;;4.88;2.15;;;21.30;36.60;;;;;;5113757;28;20499;-73
2022/02/23 12:35:50;;;;;;;4.75;2.28;;;21.30;36.60;;;;;;5113532;28;20051;-73
2022/02/23 12:38:24;;;;;;;4.85;2.08;;;21.40;36.70;;;;;;5113378;28;20093;-73
2022/02/23 12:40:52;;;;;;;6.35;2.08;;;21.40;36.60;;;;;;5113827;28;20079;-72
2022/02/23 12:43:18;;;;;;;4.88;2.25;;;21.30;36.60;;;;;;5114209;28;20130;-72
2022/02/23 12:45:50;;;;;;;4.75;2.03;;;21.40;36.60;;;;;;5113602;28;20083;-72
2022/02/23 12:48:16;;;;;;;4.80;2.10;;;21.40;36.60;;;;;;5113395;28;20103;-72
2022/02/23 12:50:42;;;;;;;3.92;1.67;;;21.40;36.60;;;;;;5113615;28;20059;-72